createdAt,value
2023-03-08T00:02:07.573Z,98818.47
2023-03-08T00:07:29.962Z,98844.50
2023-03-08T00:12:52.138Z,98829.60
2023-03-08T00:18:14.402Z,98845.34
2023-03-08T00:23:36.566Z,98839.48
2023-03-08T00:29:00.477Z,98845.52
2023-03-08T00:34:23.606Z,98851.73
2023-03-08T00:39:47.231Z,98853.64
2023-03-08T00:45:09.415Z,98862.13
2023-03-08T00:50:31.816Z,98848.08
2023-03-08T00:56:05.477Z,98858.45
2023-03-08T01:01:31.213Z,98857.02
2023-03-08T01:06:53.719Z,98858.17
2023-03-08T01:12:16.824Z,98855.05
2023-03-08T01:17:39.175Z,98856.20
2023-03-08T01:23:01.494Z,98859.61
2023-03-08T01:28:23.791Z,98854.96
2023-03-08T01:33:46.094Z,98849.78
2023-03-08T01:39:09.319Z,98868.55
2023-03-08T01:44:36.300Z,98865.52
2023-03-08T01:49:59.324Z,98863.73
2023-03-08T01:55:25.785Z,98875.97
2023-03-08T02:00:49.744Z,98875.73
2023-03-08T02:06:12.741Z,98874.14
2023-03-08T02:11:37.831Z,98879.31
2023-03-08T02:17:00.374Z,98885.44
2023-03-08T02:22:33.296Z,98889.80
2023-03-08T02:27:55.947Z,98891.56
2023-03-08T02:33:18.983Z,98907.62
2023-03-08T02:38:42.027Z,98905.78
2023-03-08T02:44:04.662Z,98915.08
2023-03-08T02:49:28.491Z,98909.23
2023-03-08T02:54:50.704Z,98923.36
2023-03-08T03:00:14.043Z,98928.88
2023-03-08T03:05:36.446Z,98937.69
2023-03-08T03:10:58.804Z,98939.91
2023-03-08T03:16:24.322Z,98935.20
2023-03-08T03:21:46.916Z,98953.74
2023-03-08T03:27:09.720Z,98960.23
2023-03-08T03:32:32.111Z,98965.83
2023-03-08T03:37:54.836Z,98971.00
2023-03-08T03:43:17.035Z,98979.94
2023-03-08T03:48:40.933Z,98986.91
2023-03-08T03:54:06.416Z,98989.29
2023-03-08T03:59:28.359Z,99000.06
2023-03-08T04:04:51.286Z,99005.59
2023-03-08T04:10:14.849Z,98996.75
2023-03-08T04:15:38.253Z,98996.58
2023-03-08T04:21:01.157Z,99022.83
2023-03-08T04:26:24.616Z,99010.59
2023-03-08T04:31:48.361Z,99014.08
2023-03-08T04:37:10.804Z,99023.53
2023-03-08T04:42:33.110Z,99017.42
2023-03-08T04:47:55.303Z,99024.62
2023-03-08T04:53:17.843Z,99017.56
2023-03-08T04:58:42.468Z,99022.20
2023-03-08T05:04:06.019Z,99034.13
2023-03-08T05:09:28.238Z,99039.48
2023-03-08T05:14:50.414Z,99034.61
2023-03-08T05:20:13.543Z,99052.82
2023-03-08T05:25:35.923Z,99057.16
2023-03-08T05:30:59.945Z,99061.22
2023-03-08T05:36:24.258Z,99075.41
2023-03-08T05:41:48.885Z,99085.38
2023-03-08T05:47:11.372Z,99090.11
2023-03-08T05:52:34.797Z,99088.09
2023-03-08T05:57:57.827Z,99099.31
2023-03-08T06:03:20.464Z,99099.39
2023-03-08T06:08:42.881Z,99102.66
2023-03-08T06:14:05.121Z,99118.59
2023-03-08T06:19:28.060Z,99129.67
2023-03-08T06:24:50.447Z,99137.32
2023-03-08T06:30:13.003Z,99159.11
2023-03-08T06:35:35.381Z,99150.63
2023-03-08T06:40:57.852Z,99160.59
2023-03-08T06:46:26.827Z,99166.49
2023-03-08T06:51:49.167Z,99186.56
2023-03-08T06:57:11.575Z,99193.13
2023-03-08T07:02:34.168Z,99193.13
2023-03-08T07:07:56.360Z,99200.69
2023-03-08T07:13:18.601Z,99210.66
2023-03-08T07:18:41.141Z,99213.50
2023-03-08T07:24:04.952Z,99209.66
2023-03-08T07:29:27.691Z,99228.07
2023-03-08T07:34:50.252Z,99224.39
2023-03-08T07:40:13.287Z,99233.25
2023-03-08T07:45:35.825Z,99247.81
2023-03-08T07:50:59.521Z,99249.62
2023-03-08T07:56:22.126Z,99257.09
2023-03-08T08:01:44.543Z,99262.28
2023-03-08T08:07:08.580Z,99274.20
2023-03-08T08:12:31.388Z,99275.72
2023-03-08T08:17:53.586Z,99273.26
2023-03-08T08:23:17.639Z,99282.27
2023-03-08T08:28:40.114Z,99300.09
2023-03-08T08:34:03.595Z,99293.34
2023-03-08T08:39:25.930Z,99287.20
2023-03-08T08:44:48.187Z,99276.10
2023-03-08T08:50:12.948Z,99291.23
2023-03-08T08:55:34.749Z,99299.50
2023-03-08T09:00:57.808Z,99290.63
2023-03-08T09:06:21.359Z,99296.50
2023-03-08T09:11:54.230Z,99284.32
2023-03-08T09:17:09.084Z,99286.87
2023-03-08T09:22:31.558Z,99305.23
2023-03-08T09:27:55.588Z,99292.66
2023-03-08T09:33:18.465Z,99308.23
2023-03-08T09:38:40.896Z,99320.55
2023-03-08T09:44:46.098Z,99299.00
2023-03-08T09:50:28.132Z,99294.47
2023-03-08T09:56:01.245Z,99307.87
2023-03-08T10:01:44.008Z,99296.15
2023-03-08T10:07:30.089Z,99299.00
2023-03-08T10:13:21.026Z,99290.23
2023-03-08T10:18:56.637Z,99293.82
2023-03-08T10:24:33.830Z,99301.14
2023-03-08T10:29:58.501Z,99296.12
2023-03-08T10:35:22.190Z,99305.20
2023-03-08T10:40:44.551Z,99298.38
2023-03-08T10:46:14.838Z,99295.81
2023-03-08T10:51:42.280Z,99299.84
2023-03-08T10:57:08.268Z,99321.77
2023-03-08T11:02:36.119Z,99307.81
2023-03-08T11:08:05.636Z,99311.01
2023-03-08T11:13:48.212Z,99316.47
2023-03-08T11:19:36.540Z,99314.07
2023-03-08T11:25:26.066Z,99311.34
2023-03-08T11:31:02.761Z,99304.58
2023-03-08T11:36:38.054Z,99305.86
2023-03-08T11:42:08.287Z,99298.11
2023-03-08T11:48:16.395Z,99300.73
2023-03-08T11:54:02.665Z,99304.84
2023-03-08T11:59:58.682Z,99317.16
2023-03-08T12:06:00.198Z,99302.31
2023-03-08T12:11:27.872Z,99308.64
2023-03-08T12:17:04.093Z,99303.75
2023-03-08T12:23:00.729Z,99297.99
2023-03-08T12:28:44.572Z,99283.66
2023-03-08T12:34:07.634Z,99293.20
2023-03-08T12:39:45.466Z,99289.02
2023-03-08T12:45:15.490Z,99289.88
2023-03-08T12:50:39.611Z,99277.37
2023-03-08T12:56:18.130Z,99284.77
2023-03-08T13:01:50.773Z,99286.66
2023-03-08T13:07:50.913Z,99269.95
2023-03-08T13:19:25.153Z,99262.52
2023-03-08T13:25:10.875Z,99257.26
2023-03-08T13:30:47.544Z,99247.26
2023-03-08T13:36:29.060Z,99260.70
2023-03-08T13:41:54.206Z,99236.55
2023-03-08T13:47:33.188Z,99249.02
2023-03-08T13:52:57.432Z,99246.84
2023-03-08T13:58:34.969Z,99226.48
2023-03-08T14:04:01.677Z,99230.67
2023-03-08T14:09:24.110Z,99223.92
2023-03-08T14:14:59.875Z,99245.40
2023-03-08T14:20:31.582Z,99241.53
2023-03-08T14:25:55.534Z,99236.17
2023-03-08T14:31:34.605Z,99223.43
2023-03-08T14:37:02.192Z,99219.30
2023-03-08T14:42:53.070Z,99227.53
2023-03-08T14:48:37.209Z,99214.58
2023-03-08T14:54:15.734Z,99200.45
2023-03-08T14:59:38.196Z,99201.92
2023-03-08T15:05:01.946Z,99194.47
2023-03-08T15:10:34.293Z,99195.94
2023-03-08T15:15:57.186Z,99198.91
2023-03-08T15:21:20.325Z,99205.00
2023-03-08T15:26:45.061Z,99210.27
2023-03-08T15:32:08.368Z,99200.16
2023-03-08T15:37:32.438Z,99203.23
2023-03-08T15:42:55.073Z,99197.38
2023-03-08T15:48:22.543Z,99208.28
2023-03-08T15:53:45.234Z,99204.00
2023-03-08T15:59:08.756Z,99201.77
2023-03-08T16:04:31.829Z,99202.05
2023-03-08T16:09:54.365Z,99206.70
2023-03-08T16:15:16.895Z,99208.98
2023-03-08T16:20:39.574Z,99212.58
2023-03-08T16:26:16.953Z,99210.62
2023-03-08T16:31:40.395Z,99210.44
2023-03-08T16:37:05.814Z,99203.08
2023-03-08T16:42:35.752Z,99203.80
2023-03-08T16:47:59.047Z,99209.72
2023-03-08T16:53:21.627Z,99202.17
2023-03-08T16:58:44.814Z,99215.45
2023-03-08T17:04:09.024Z,99204.98
2023-03-08T17:09:31.551Z,99193.58
2023-03-08T17:14:55.011Z,99194.97
2023-03-08T17:20:18.288Z,99188.83
2023-03-08T17:25:41.333Z,99191.08
2023-03-08T17:31:04.488Z,99186.92
2023-03-08T17:36:28.573Z,99194.48
2023-03-08T17:41:51.689Z,99189.73
2023-03-08T17:47:14.220Z,99186.07
2023-03-08T17:52:36.426Z,99177.75
2023-03-08T17:57:58.829Z,99172.56
2023-03-08T18:03:22.101Z,99174.44
2023-03-08T18:08:45.586Z,99170.95
2023-03-08T18:14:08.354Z,99166.24
2023-03-08T18:19:32.345Z,99160.11
2023-03-08T18:24:55.149Z,99155.02
2023-03-08T18:30:18.114Z,99145.64
2023-03-08T18:35:40.823Z,99146.02
2023-03-08T18:41:03.120Z,99155.02
2023-03-08T18:46:27.682Z,99137.16
2023-03-08T18:51:52.464Z,99139.13
2023-03-08T18:57:15.009Z,99127.55
2023-03-08T19:02:37.293Z,99133.86
2023-03-08T19:07:59.694Z,99136.59
2023-03-08T19:13:21.873Z,99139.37
2023-03-08T19:18:44.319Z,99144.31
2023-03-08T19:24:07.506Z,99139.21
2023-03-08T19:29:34.341Z,99149.49
2023-03-08T19:34:58.054Z,99146.95
2023-03-08T19:40:21.339Z,99143.37
2023-03-08T19:45:43.932Z,99138.80
2023-03-08T19:51:06.217Z,99143.80
2023-03-08T19:56:33.369Z,99141.07
2023-03-08T20:01:56.614Z,99137.44
2023-03-08T20:07:19.719Z,99136.12
2023-03-08T20:12:41.916Z,99140.41
2023-03-08T20:18:04.225Z,99135.98
2023-03-08T20:23:27.124Z,99129.16
2023-03-08T20:28:49.453Z,99134.43
2023-03-08T20:34:12.014Z,99131.97
2023-03-08T20:39:34.316Z,99139.98
2023-03-08T20:44:56.580Z,99136.31
2023-03-08T20:50:19.112Z,99149.27
2023-03-08T20:55:43.488Z,99140.92
2023-03-08T21:01:05.748Z,99140.49
2023-03-08T21:06:35.848Z,99131.13
2023-03-08T21:11:59.168Z,99138.45
2023-03-08T21:17:23.114Z,99134.45
2023-03-08T21:22:45.356Z,99119.73
2023-03-08T21:28:07.711Z,99124.92
2023-03-08T21:33:31.695Z,99113.53
2023-03-08T21:39:00.556Z,99109.19
2023-03-08T21:44:27.509Z,99111.66
2023-03-08T21:49:50.221Z,99103.30
2023-03-08T21:55:12.837Z,99096.84
2023-03-08T22:00:35.347Z,99094.38
2023-03-08T22:05:57.603Z,99093.53
2023-03-08T22:11:19.982Z,99088.41
2023-03-08T22:16:44.236Z,99090.11
2023-03-08T22:22:06.782Z,99086.80
2023-03-08T22:27:31.602Z,99083.58
2023-03-08T22:32:53.767Z,99084.43
2023-03-08T22:38:17.610Z,99091.48
2023-03-08T22:43:40.462Z,99093.09
2023-03-08T22:49:07.233Z,99093.86
2023-03-08T22:54:32.945Z,99105.07
2023-03-08T22:59:55.125Z,99104.08
2023-03-08T23:05:24.206Z,99110.02
2023-03-08T23:10:46.993Z,99099.48
2023-03-08T23:16:26.732Z,99093.27
2023-03-08T23:22:05.828Z,99088.94
2023-03-08T23:27:28.368Z,99089.78
2023-03-08T23:33:06.777Z,99093.94
2023-03-08T23:38:29.549Z,99093.09
2023-03-08T23:43:53.722Z,99086.12
2023-03-08T23:49:17.552Z,99088.75
2023-03-08T23:54:39.837Z,99090.45
